sensor_id;sensor_type;location;lat;lon;timestamp;P1;durP1;ratioP1;P2;durP2;ratioP2
49123;SDS011;48506;48.202;16.274;2023-02-15T00:01:33;39.85;;;20.90;;
49123;SDS011;48506;48.202;16.274;2023-02-15T00:03:59;38.38;;;19.33;;
49123;SDS011;48506;48.202;16.274;2023-02-15T00:06:25;37.35;;;18.73;;
49123;SDS011;48506;48.202;16.274;2023-02-15T00:08:51;38.30;;;19.98;;
49123;SDS011;48506;48.202;16.274;2023-02-15T00:11:19;37.40;;;18.92;;
49123;SDS011;48506;48.202;16.274;2023-02-15T00:16:31;36.10;;;19.65;;
49123;SDS011;48506;48.202;16.274;2023-02-15T00:18:57;43.70;;;20.25;;
49123;SDS011;48506;48.202;16.274;2023-02-15T00:21:26;43.90;;;20.93;;
49123;SDS011;48506;48.202;16.274;2023-02-15T00:23:57;40.47;;;20.92;;
49123;SDS011;48506;48.202;16.274;2023-02-15T00:26:24;35.78;;;17.85;;
49123;SDS011;48506;48.202;16.274;2023-02-15T00:28:52;39.40;;;19.65;;
49123;SDS011;48506;48.202;16.274;2023-02-15T00:31:19;37.22;;;20.02;;
49123;SDS011;48506;48.202;16.274;2023-02-15T00:33:45;34.92;;;19.45;;
49123;SDS011;48506;48.202;16.274;2023-02-15T00:36:12;40.53;;;19.35;;
49123;SDS011;48506;48.202;16.274;2023-02-15T00:38:38;37.80;;;19.73;;
49123;SDS011;48506;48.202;16.274;2023-02-15T00:41:05;35.80;;;19.02;;
49123;SDS011;48506;48.202;16.274;2023-02-15T00:43:32;41.95;;;19.15;;
49123;SDS011;48506;48.202;16.274;2023-02-15T00:45:59;38.13;;;19.20;;
49123;SDS011;48506;48.202;16.274;2023-02-15T00:48:25;39.72;;;21.00;;
49123;SDS011;48506;48.202;16.274;2023-02-15T00:50:52;41.22;;;19.73;;
49123;SDS011;48506;48.202;16.274;2023-02-15T00:53:23;40.67;;;20.25;;
49123;SDS011;48506;48.202;16.274;2023-02-15T00:55:50;38.20;;;19.60;;
49123;SDS011;48506;48.202;16.274;2023-02-15T00:58:16;34.13;;;17.17;;
49123;SDS011;48506;48.202;16.274;2023-02-15T01:00:43;42.40;;;19.77;;
49123;SDS011;48506;48.202;16.274;2023-02-15T01:03:11;37.92;;;19.48;;
49123;SDS011;48506;48.202;16.274;2023-02-15T01:05:37;41.80;;;18.90;;
49123;SDS011;48506;48.202;16.274;2023-02-15T01:08:04;35.53;;;19.27;;
49123;SDS011;48506;48.202;16.274;2023-02-15T01:10:31;37.47;;;20.05;;
49123;SDS011;48506;48.202;16.274;2023-02-15T01:12:58;36.05;;;18.95;;
49123;SDS011;48506;48.202;16.274;2023-02-15T01:15:25;39.88;;;20.10;;
49123;SDS011;48506;48.202;16.274;2023-02-15T01:17:51;37.20;;;20.15;;
49123;SDS011;48506;48.202;16.274;2023-02-15T01:20:19;34.70;;;17.38;;
49123;SDS011;48506;48.202;16.274;2023-02-15T01:22:46;34.88;;;19.42;;
49123;SDS011;48506;48.202;16.274;2023-02-15T01:25:15;31.63;;;17.88;;
49123;SDS011;48506;48.202;16.274;2023-02-15T01:27:42;33.28;;;19.08;;
49123;SDS011;48506;48.202;16.274;2023-02-15T01:30:08;36.78;;;18.92;;
49123;SDS011;48506;48.202;16.274;2023-02-15T01:32:34;38.75;;;19.63;;
49123;SDS011;48506;48.202;16.274;2023-02-15T01:35:01;37.45;;;18.55;;
49123;SDS011;48506;48.202;16.274;2023-02-15T01:37:27;38.80;;;19.85;;
49123;SDS011;48506;48.202;16.274;2023-02-15T01:39:55;34.40;;;18.92;;
49123;SDS011;48506;48.202;16.274;2023-02-15T01:42:21;36.00;;;18.27;;
49123;SDS011;48506;48.202;16.274;2023-02-15T01:47:22;39.53;;;19.33;;
49123;SDS011;48506;48.202;16.274;2023-02-15T01:52:51;34.55;;;17.55;;
49123;SDS011;48506;48.202;16.274;2023-02-15T01:55:43;38.72;;;19.63;;
49123;SDS011;48506;48.202;16.274;2023-02-15T01:58:14;36.53;;;19.67;;
49123;SDS011;48506;48.202;16.274;2023-02-15T02:00:41;35.47;;;18.38;;
49123;SDS011;48506;48.202;16.274;2023-02-15T02:03:08;38.58;;;19.30;;
49123;SDS011;48506;48.202;16.274;2023-02-15T02:05:35;38.45;;;20.73;;
49123;SDS011;48506;48.202;16.274;2023-02-15T02:08:04;38.03;;;19.70;;
49123;SDS011;48506;48.202;16.274;2023-02-15T02:10:30;38.75;;;18.77;;
49123;SDS011;48506;48.202;16.274;2023-02-15T02:12:59;42.10;;;20.67;;
49123;SDS011;48506;48.202;16.274;2023-02-15T02:15:53;33.72;;;17.73;;
49123;SDS011;48506;48.202;16.274;2023-02-15T02:18:28;35.13;;;17.98;;
49123;SDS011;48506;48.202;16.274;2023-02-15T02:24:06;38.33;;;19.92;;
49123;SDS011;48506;48.202;16.274;2023-02-15T02:35:49;35.08;;;17.38;;
49123;SDS011;48506;48.202;16.274;2023-02-15T02:49:17;36.28;;;18.95;;
49123;SDS011;48506;48.202;16.274;2023-02-15T02:52:05;44.30;;;19.42;;
49123;SDS011;48506;48.202;16.274;2023-02-15T02:54:52;37.35;;;19.23;;
49123;SDS011;48506;48.202;16.274;2023-02-15T02:57:20;40.55;;;19.42;;
49123;SDS011;48506;48.202;16.274;2023-02-15T02:59:50;35.67;;;18.23;;
49123;SDS011;48506;48.202;16.274;2023-02-15T03:02:19;37.42;;;19.08;;
49123;SDS011;48506;48.202;16.274;2023-02-15T03:04:52;40.30;;;21.17;;
49123;SDS011;48506;48.202;16.274;2023-02-15T03:07:29;34.97;;;18.05;;
49123;SDS011;48506;48.202;16.274;2023-02-15T03:09:58;40.35;;;18.50;;
49123;SDS011;48506;48.202;16.274;2023-02-15T03:15:01;39.30;;;19.27;;
49123;SDS011;48506;48.202;16.274;2023-02-15T03:17:34;41.70;;;21.15;;
49123;SDS011;48506;48.202;16.274;2023-02-15T03:20:09;37.67;;;19.83;;
49123;SDS011;48506;48.202;16.274;2023-02-15T03:22:41;39.90;;;19.40;;
49123;SDS011;48506;48.202;16.274;2023-02-15T03:25:19;39.33;;;19.35;;
49123;SDS011;48506;48.202;16.274;2023-02-15T03:27:49;41.42;;;20.10;;
49123;SDS011;48506;48.202;16.274;2023-02-15T03:30:27;35.90;;;19.15;;
49123;SDS011;48506;48.202;16.274;2023-02-15T03:32:55;37.60;;;19.65;;
49123;SDS011;48506;48.202;16.274;2023-02-15T03:35:26;43.55;;;20.85;;
49123;SDS011;48506;48.202;16.274;2023-02-15T03:38:04;38.95;;;18.70;;
49123;SDS011;48506;48.202;16.274;2023-02-15T03:40:40;39.70;;;20.67;;
49123;SDS011;48506;48.202;16.274;2023-02-15T03:43:30;43.05;;;20.52;;
49123;SDS011;48506;48.202;16.274;2023-02-15T03:46:07;38.10;;;18.20;;
49123;SDS011;48506;48.202;16.274;2023-02-15T03:48:39;38.40;;;20.50;;
49123;SDS011;48506;48.202;16.274;2023-02-15T03:51:15;39.75;;;19.02;;
49123;SDS011;48506;48.202;16.274;2023-02-15T03:54:00;35.65;;;18.42;;
49123;SDS011;48506;48.202;16.274;2023-02-15T03:56:38;40.75;;;20.45;;
49123;SDS011;48506;48.202;16.274;2023-02-15T03:59:06;37.15;;;18.58;;
49123;SDS011;48506;48.202;16.274;2023-02-15T04:04:30;39.00;;;19.10;;
49123;SDS011;48506;48.202;16.274;2023-02-15T04:07:01;42.70;;;20.70;;
49123;SDS011;48506;48.202;16.274;2023-02-15T04:09:29;35.88;;;18.70;;
49123;SDS011;48506;48.202;16.274;2023-02-15T04:12:14;37.83;;;20.10;;
49123;SDS011;48506;48.202;16.274;2023-02-15T04:14:40;38.22;;;19.15;;
49123;SDS011;48506;48.202;16.274;2023-02-15T04:17:24;42.15;;;20.20;;
49123;SDS011;48506;48.202;16.274;2023-02-15T04:19:49;40.95;;;19.88;;
49123;SDS011;48506;48.202;16.274;2023-02-15T04:22:34;40.92;;;21.02;;
49123;SDS011;48506;48.202;16.274;2023-02-15T04:25:18;41.00;;;18.27;;
49123;SDS011;48506;48.202;16.274;2023-02-15T04:27:47;39.53;;;18.88;;
49123;SDS011;48506;48.202;16.274;2023-02-15T04:30:16;40.08;;;19.55;;
49123;SDS011;48506;48.202;16.274;2023-02-15T04:32:43;46.10;;;22.13;;
49123;SDS011;48506;48.202;16.274;2023-02-15T04:35:10;47.08;;;22.08;;
49123;SDS011;48506;48.202;16.274;2023-02-15T04:37:37;41.38;;;19.08;;
49123;SDS011;48506;48.202;16.274;2023-02-15T04:40:07;41.10;;;19.73;;
49123;SDS011;48506;48.202;16.274;2023-02-15T04:42:34;44.83;;;20.40;;
49123;SDS011;48506;48.202;16.274;2023-02-15T04:45:00;43.47;;;20.92;;
49123;SDS011;48506;48.202;16.274;2023-02-15T04:47:26;42.60;;;20.08;;
49123;SDS011;48506;48.202;16.274;2023-02-15T04:49:51;41.13;;;20.17;;
49123;SDS011;48506;48.202;16.274;2023-02-15T04:52:17;45.38;;;21.95;;
49123;SDS011;48506;48.202;16.274;2023-02-15T04:54:43;43.22;;;21.27;;
49123;SDS011;48506;48.202;16.274;2023-02-15T04:57:10;41.88;;;20.35;;
49123;SDS011;48506;48.202;16.274;2023-02-15T04:59:35;44.92;;;21.25;;
49123;SDS011;48506;48.202;16.274;2023-02-15T05:02:02;42.45;;;20.83;;
49123;SDS011;48506;48.202;16.274;2023-02-15T05:04:28;43.17;;;20.90;;
49123;SDS011;48506;48.202;16.274;2023-02-15T05:06:54;46.60;;;20.75;;
49123;SDS011;48506;48.202;16.274;2023-02-15T05:09:20;41.42;;;20.10;;
49123;SDS011;48506;48.202;16.274;2023-02-15T05:11:46;48.35;;;21.52;;
49123;SDS011;48506;48.202;16.274;2023-02-15T05:14:12;43.30;;;21.38;;
49123;SDS011;48506;48.202;16.274;2023-02-15T05:16:38;43.92;;;19.98;;
49123;SDS011;48506;48.202;16.274;2023-02-15T05:19:04;43.80;;;22.08;;
49123;SDS011;48506;48.202;16.274;2023-02-15T05:21:31;43.97;;;22.67;;
49123;SDS011;48506;48.202;16.274;2023-02-15T05:23:57;44.63;;;21.42;;
49123;SDS011;48506;48.202;16.274;2023-02-15T05:26:24;45.22;;;22.00;;
49123;SDS011;48506;48.202;16.274;2023-02-15T05:29:09;51.20;;;22.48;;
49123;SDS011;48506;48.202;16.274;2023-02-15T05:31:36;45.97;;;22.05;;
49123;SDS011;48506;48.202;16.274;2023-02-15T05:34:02;42.03;;;20.23;;
49123;SDS011;48506;48.202;16.274;2023-02-15T05:36:28;45.33;;;20.85;;
49123;SDS011;48506;48.202;16.274;2023-02-15T05:38:55;44.80;;;21.40;;
49123;SDS011;48506;48.202;16.274;2023-02-15T05:41:21;48.55;;;24.17;;
49123;SDS011;48506;48.202;16.274;2023-02-15T05:43:47;48.72;;;25.27;;
49123;SDS011;48506;48.202;16.274;2023-02-15T05:46:14;44.90;;;22.45;;
49123;SDS011;48506;48.202;16.274;2023-02-15T05:48:39;44.42;;;21.77;;
49123;SDS011;48506;48.202;16.274;2023-02-15T05:51:06;45.13;;;20.98;;
49123;SDS011;48506;48.202;16.274;2023-02-15T05:53:41;47.08;;;21.55;;
49123;SDS011;48506;48.202;16.274;2023-02-15T05:56:11;45.92;;;21.13;;
49123;SDS011;48506;48.202;16.274;2023-02-15T06:01:11;44.45;;;20.98;;
49123;SDS011;48506;48.202;16.274;2023-02-15T06:03:37;46.05;;;22.20;;
49123;SDS011;48506;48.202;16.274;2023-02-15T06:06:03;42.80;;;20.48;;
49123;SDS011;48506;48.202;16.274;2023-02-15T06:08:30;45.78;;;20.70;;
49123;SDS011;48506;48.202;16.274;2023-02-15T06:10:57;48.40;;;21.38;;
49123;SDS011;48506;48.202;16.274;2023-02-15T06:13:23;40.13;;;19.10;;
49123;SDS011;48506;48.202;16.274;2023-02-15T06:15:49;43.90;;;19.73;;
49123;SDS011;48506;48.202;16.274;2023-02-15T06:18:14;39.13;;;18.30;;
49123;SDS011;48506;48.202;16.274;2023-02-15T06:20:40;39.25;;;18.85;;
49123;SDS011;48506;48.202;16.274;2023-02-15T06:23:07;48.72;;;20.63;;
49123;SDS011;48506;48.202;16.274;2023-02-15T06:25:33;39.67;;;18.33;;
49123;SDS011;48506;48.202;16.274;2023-02-15T06:27:58;38.38;;;18.38;;
49123;SDS011;48506;48.202;16.274;2023-02-15T06:30:24;38.72;;;17.33;;
49123;SDS011;48506;48.202;16.274;2023-02-15T06:32:50;43.60;;;18.08;;
49123;SDS011;48506;48.202;16.274;2023-02-15T06:35:16;40.58;;;18.45;;
49123;SDS011;48506;48.202;16.274;2023-02-15T06:37:42;45.45;;;20.95;;
49123;SDS011;48506;48.202;16.274;2023-02-15T06:40:10;39.85;;;19.90;;
49123;SDS011;48506;48.202;16.274;2023-02-15T06:42:36;40.88;;;20.00;;
49123;SDS011;48506;48.202;16.274;2023-02-15T06:45:03;45.33;;;21.10;;
49123;SDS011;48506;48.202;16.274;2023-02-15T06:47:29;47.38;;;22.83;;
49123;SDS011;48506;48.202;16.274;2023-02-15T06:49:55;45.70;;;20.80;;
49123;SDS011;48506;48.202;16.274;2023-02-15T06:52:21;47.72;;;23.35;;
49123;SDS011;48506;48.202;16.274;2023-02-15T06:54:47;44.33;;;21.98;;
49123;SDS011;48506;48.202;16.274;2023-02-15T06:57:13;46.40;;;22.13;;
49123;SDS011;48506;48.202;16.274;2023-02-15T06:59:39;42.67;;;21.23;;
49123;SDS011;48506;48.202;16.274;2023-02-15T07:02:06;54.53;;;22.98;;
49123;SDS011;48506;48.202;16.274;2023-02-15T07:04:33;45.28;;;20.45;;
49123;SDS011;48506;48.202;16.274;2023-02-15T07:07:00;44.10;;;20.42;;
49123;SDS011;48506;48.202;16.274;2023-02-15T07:09:26;40.15;;;21.48;;
49123;SDS011;48506;48.202;16.274;2023-02-15T07:11:51;41.45;;;19.52;;
49123;SDS011;48506;48.202;16.274;2023-02-15T07:14:36;43.08;;;19.10;;
49123;SDS011;48506;48.202;16.274;2023-02-15T07:17:02;44.05;;;19.88;;
49123;SDS011;48506;48.202;16.274;2023-02-15T07:19:28;45.10;;;20.42;;
49123;SDS011;48506;48.202;16.274;2023-02-15T07:21:54;50.47;;;21.45;;
49123;SDS011;48506;48.202;16.274;2023-02-15T07:24:20;41.20;;;20.50;;
49123;SDS011;48506;48.202;16.274;2023-02-15T07:26:45;40.30;;;18.35;;
49123;SDS011;48506;48.202;16.274;2023-02-15T07:29:11;44.60;;;20.23;;
49123;SDS011;48506;48.202;16.274;2023-02-15T07:31:37;43.92;;;20.33;;
49123;SDS011;48506;48.202;16.274;2023-02-15T07:34:05;48.15;;;23.05;;
49123;SDS011;48506;48.202;16.274;2023-02-15T07:36:32;52.08;;;21.48;;
49123;SDS011;48506;48.202;16.274;2023-02-15T07:38:58;48.30;;;20.88;;
49123;SDS011;48506;48.202;16.274;2023-02-15T07:41:24;40.67;;;18.80;;
49123;SDS011;48506;48.202;16.274;2023-02-15T07:43:50;47.97;;;21.90;;
49123;SDS011;48506;48.202;16.274;2023-02-15T07:46:16;48.55;;;22.40;;
49123;SDS011;48506;48.202;16.274;2023-02-15T07:48:44;48.03;;;21.27;;
49123;SDS011;48506;48.202;16.274;2023-02-15T07:51:11;42.85;;;20.20;;
49123;SDS011;48506;48.202;16.274;2023-02-15T07:53:38;48.22;;;20.67;;
49123;SDS011;48506;48.202;16.274;2023-02-15T07:56:06;44.70;;;21.15;;
49123;SDS011;48506;48.202;16.274;2023-02-15T07:58:35;40.40;;;19.50;;
49123;SDS011;48506;48.202;16.274;2023-02-15T08:01:24;43.53;;;21.23;;
49123;SDS011;48506;48.202;16.274;2023-02-15T08:03:51;41.40;;;19.80;;
49123;SDS011;48506;48.202;16.274;2023-02-15T08:06:18;43.58;;;21.25;;
49123;SDS011;48506;48.202;16.274;2023-02-15T08:08:46;49.83;;;20.13;;
49123;SDS011;48506;48.202;16.274;2023-02-15T08:14:02;44.17;;;20.33;;
49123;SDS011;48506;48.202;16.274;2023-02-15T08:19:38;40.42;;;18.75;;
49123;SDS011;48506;48.202;16.274;2023-02-15T08:22:01;41.17;;;18.90;;
49123;SDS011;48506;48.202;16.274;2023-02-15T08:24:30;44.38;;;21.10;;
49123;SDS011;48506;48.202;16.274;2023-02-15T08:26:58;40.67;;;19.02;;
49123;SDS011;48506;48.202;16.274;2023-02-15T08:29:28;41.15;;;18.35;;
49123;SDS011;48506;48.202;16.274;2023-02-15T08:31:56;43.20;;;20.50;;
49123;SDS011;48506;48.202;16.274;2023-02-15T08:34:27;45.15;;;20.98;;
49123;SDS011;48506;48.202;16.274;2023-02-15T08:36:55;39.22;;;18.33;;
49123;SDS011;48506;48.202;16.274;2023-02-15T08:39:21;40.35;;;18.95;;
49123;SDS011;48506;48.202;16.274;2023-02-15T08:41:48;46.33;;;21.92;;
49123;SDS011;48506;48.202;16.274;2023-02-15T08:44:15;40.22;;;20.77;;
49123;SDS011;48506;48.202;16.274;2023-02-15T08:46:43;46.20;;;20.73;;
49123;SDS011;48506;48.202;16.274;2023-02-15T08:49:20;43.40;;;20.30;;
49123;SDS011;48506;48.202;16.274;2023-02-15T08:51:47;41.88;;;19.42;;
49123;SDS011;48506;48.202;16.274;2023-02-15T08:54:15;48.67;;;22.08;;
49123;SDS011;48506;48.202;16.274;2023-02-15T08:56:43;48.17;;;20.45;;
49123;SDS011;48506;48.202;16.274;2023-02-15T08:59:12;43.80;;;19.52;;
49123;SDS011;48506;48.202;16.274;2023-02-15T09:01:43;47.88;;;21.13;;
49123;SDS011;48506;48.202;16.274;2023-02-15T09:04:10;43.70;;;20.95;;
49123;SDS011;48506;48.202;16.274;2023-02-15T09:06:39;42.80;;;20.50;;
49123;SDS011;48506;48.202;16.274;2023-02-15T09:09:07;39.65;;;19.25;;
49123;SDS011;48506;48.202;16.274;2023-02-15T09:11:35;41.92;;;20.20;;
49123;SDS011;48506;48.202;16.274;2023-02-15T09:14:04;40.05;;;20.20;;
49123;SDS011;48506;48.202;16.274;2023-02-15T09:16:35;43.45;;;19.45;;
49123;SDS011;48506;48.202;16.274;2023-02-15T09:19:03;38.33;;;19.27;;
49123;SDS011;48506;48.202;16.274;2023-02-15T09:21:30;39.15;;;19.17;;
49123;SDS011;48506;48.202;16.274;2023-02-15T09:23:57;46.08;;;21.73;;
49123;SDS011;48506;48.202;16.274;2023-02-15T09:26:27;40.95;;;20.65;;
49123;SDS011;48506;48.202;16.274;2023-02-15T09:28:55;44.55;;;21.77;;
49123;SDS011;48506;48.202;16.274;2023-02-15T09:31:25;36.55;;;18.80;;
49123;SDS011;48506;48.202;16.274;2023-02-15T09:33:56;43.08;;;19.88;;
49123;SDS011;48506;48.202;16.274;2023-02-15T09:36:30;47.75;;;22.02;;
49123;SDS011;48506;48.202;16.274;2023-02-15T09:38:59;47.47;;;20.35;;
49123;SDS011;48506;48.202;16.274;2023-02-15T09:56:19;43.90;;;21.05;;
49123;SDS011;48506;48.202;16.274;2023-02-15T09:59:03;46.00;;;20.25;;
49123;SDS011;48506;48.202;16.274;2023-02-15T10:26:48;42.92;;;20.27;;
49123;SDS011;48506;48.202;16.274;2023-02-15T10:51:10;42.08;;;21.40;;
49123;SDS011;48506;48.202;16.274;2023-02-15T10:53:57;40.70;;;19.45;;
49123;SDS011;48506;48.202;16.274;2023-02-15T11:01:53;43.10;;;21.67;;
49123;SDS011;48506;48.202;16.274;2023-02-15T11:04:45;42.65;;;19.10;;
49123;SDS011;48506;48.202;16.274;2023-02-15T11:07:57;44.50;;;20.15;;
49123;SDS011;48506;48.202;16.274;2023-02-15T11:12:50;41.28;;;20.75;;
49123;SDS011;48506;48.202;16.274;2023-02-15T11:17:55;36.75;;;17.83;;
49123;SDS011;48506;48.202;16.274;2023-02-15T11:23:31;44.17;;;21.50;;
49123;SDS011;48506;48.202;16.274;2023-02-15T11:26:04;43.47;;;19.10;;
49123;SDS011;48506;48.202;16.274;2023-02-15T11:28:52;41.97;;;20.58;;
49123;SDS011;48506;48.202;16.274;2023-02-15T11:31:30;40.70;;;19.27;;
49123;SDS011;48506;48.202;16.274;2023-02-15T11:37:14;40.33;;;17.80;;
49123;SDS011;48506;48.202;16.274;2023-02-15T11:39:43;38.35;;;19.27;;
49123;SDS011;48506;48.202;16.274;2023-02-15T11:42:12;46.38;;;20.25;;
49123;SDS011;48506;48.202;16.274;2023-02-15T11:44:47;41.83;;;19.60;;
49123;SDS011;48506;48.202;16.274;2023-02-15T11:47:30;40.00;;;19.58;;
49123;SDS011;48506;48.202;16.274;2023-02-15T11:49:56;37.40;;;17.58;;
49123;SDS011;48506;48.202;16.274;2023-02-15T11:52:22;40.60;;;20.27;;
49123;SDS011;48506;48.202;16.274;2023-02-15T11:54:49;38.63;;;17.98;;
49123;SDS011;48506;48.202;16.274;2023-02-15T11:59:54;41.05;;;20.50;;
49123;SDS011;48506;48.202;16.274;2023-02-15T12:02:26;42.33;;;20.58;;
49123;SDS011;48506;48.202;16.274;2023-02-15T12:04:58;40.95;;;20.65;;
49123;SDS011;48506;48.202;16.274;2023-02-15T12:07:32;39.55;;;18.63;;
49123;SDS011;48506;48.202;16.274;2023-02-15T12:13:11;45.50;;;20.77;;
49123;SDS011;48506;48.202;16.274;2023-02-15T12:15:53;34.35;;;17.92;;
49123;SDS011;48506;48.202;16.274;2023-02-15T12:18:41;34.83;;;15.83;;
49123;SDS011;48506;48.202;16.274;2023-02-15T12:21:10;39.58;;;19.35;;
49123;SDS011;48506;48.202;16.274;2023-02-15T12:23:43;37.95;;;19.05;;
49123;SDS011;48506;48.202;16.274;2023-02-15T12:26:14;42.50;;;19.20;;
49123;SDS011;48506;48.202;16.274;2023-02-15T12:28:49;38.72;;;18.45;;
49123;SDS011;48506;48.202;16.274;2023-02-15T12:33:57;36.10;;;19.13;;
49123;SDS011;48506;48.202;16.274;2023-02-15T12:36:32;40.28;;;19.02;;
49123;SDS011;48506;48.202;16.274;2023-02-15T12:41:38;38.65;;;19.88;;
49123;SDS011;48506;48.202;16.274;2023-02-15T12:44:21;36.90;;;18.23;;
49123;SDS011;48506;48.202;16.274;2023-02-15T12:47:17;38.38;;;19.13;;
49123;SDS011;48506;48.202;16.274;2023-02-15T12:49:44;37.70;;;18.25;;
49123;SDS011;48506;48.202;16.274;2023-02-15T12:52:29;41.80;;;19.80;;
49123;SDS011;48506;48.202;16.274;2023-02-15T12:54:55;36.58;;;19.05;;
49123;SDS011;48506;48.202;16.274;2023-02-15T12:58:05;35.78;;;18.15;;
49123;SDS011;48506;48.202;16.274;2023-02-15T13:00:31;36.45;;;20.05;;
49123;SDS011;48506;48.202;16.274;2023-02-15T13:02:57;32.63;;;18.63;;
49123;SDS011;48506;48.202;16.274;2023-02-15T13:05:46;37.75;;;19.60;;
49123;SDS011;48506;48.202;16.274;2023-02-15T13:08:14;36.40;;;19.75;;
49123;SDS011;48506;48.202;16.274;2023-02-15T13:13:27;34.17;;;18.67;;
49123;SDS011;48506;48.202;16.274;2023-02-15T13:16:00;36.60;;;19.05;;
49123;SDS011;48506;48.202;16.274;2023-02-15T13:18:31;36.50;;;19.45;;
49123;SDS011;48506;48.202;16.274;2023-02-15T13:21:18;34.95;;;18.88;;
49123;SDS011;48506;48.202;16.274;2023-02-15T13:23:48;36.33;;;19.35;;
49123;SDS011;48506;48.202;16.274;2023-02-15T13:26:23;35.88;;;19.60;;
49123;SDS011;48506;48.202;16.274;2023-02-15T13:28:53;36.03;;;17.15;;
49123;SDS011;48506;48.202;16.274;2023-02-15T13:31:27;36.70;;;19.05;;
49123;SDS011;48506;48.202;16.274;2023-02-15T13:34:12;38.88;;;20.38;;
49123;SDS011;48506;48.202;16.274;2023-02-15T13:37:02;37.25;;;20.95;;
49123;SDS011;48506;48.202;16.274;2023-02-15T13:42:49;39.78;;;19.52;;
49123;SDS011;48506;48.202;16.274;2023-02-15T13:45:35;42.70;;;21.23;;
49123;SDS011;48506;48.202;16.274;2023-02-15T13:49:06;38.22;;;20.10;;
49123;SDS011;48506;48.202;16.274;2023-02-15T13:51:21;37.08;;;20.92;;
49123;SDS011;48506;48.202;16.274;2023-02-15T13:59:26;38.88;;;21.05;;
49123;SDS011;48506;48.202;16.274;2023-02-15T14:10:21;34.10;;;20.20;;
49123;SDS011;48506;48.202;16.274;2023-02-15T14:15:39;33.88;;;19.75;;
49123;SDS011;48506;48.202;16.274;2023-02-15T14:18:37;37.45;;;20.30;;
49123;SDS011;48506;48.202;16.274;2023-02-15T14:24:14;34.20;;;20.38;;
49123;SDS011;48506;48.202;16.274;2023-02-15T14:32:09;33.65;;;20.20;;
49123;SDS011;48506;48.202;16.274;2023-02-15T14:34:45;37.63;;;21.23;;
49123;SDS011;48506;48.202;16.274;2023-02-15T14:37:12;34.58;;;19.63;;
49123;SDS011;48506;48.202;16.274;2023-02-15T14:39:47;34.70;;;18.95;;
49123;SDS011;48506;48.202;16.274;2023-02-15T14:42:56;35.20;;;18.95;;
49123;SDS011;48506;48.202;16.274;2023-02-15T14:45:38;36.50;;;19.98;;
49123;SDS011;48506;48.202;16.274;2023-02-15T14:50:40;29.45;;;19.02;;
49123;SDS011;48506;48.202;16.274;2023-02-15T14:56:05;32.20;;;19.48;;
49123;SDS011;48506;48.202;16.274;2023-02-15T15:01:27;37.83;;;22.08;;
49123;SDS011;48506;48.202;16.274;2023-02-15T15:03:59;39.88;;;21.27;;
49123;SDS011;48506;48.202;16.274;2023-02-15T15:06:35;32.70;;;19.88;;
49123;SDS011;48506;48.202;16.274;2023-02-15T15:09:12;36.17;;;21.27;;
49123;SDS011;48506;48.202;16.274;2023-02-15T15:14:53;34.10;;;21.80;;
49123;SDS011;48506;48.202;16.274;2023-02-15T15:19:59;39.50;;;21.30;;
49123;SDS011;48506;48.202;16.274;2023-02-15T15:22:27;36.88;;;21.75;;
49123;SDS011;48506;48.202;16.274;2023-02-15T15:24:56;35.75;;;19.85;;
49123;SDS011;48506;48.202;16.274;2023-02-15T15:49:15;41.88;;;19.88;;
49123;SDS011;48506;48.202;16.274;2023-02-15T15:51:44;38.50;;;20.88;;
49123;SDS011;48506;48.202;16.274;2023-02-15T15:54:18;38.08;;;20.40;;
49123;SDS011;48506;48.202;16.274;2023-02-15T15:56:47;39.92;;;18.95;;
49123;SDS011;48506;48.202;16.274;2023-02-15T15:59:27;39.55;;;21.08;;
49123;SDS011;48506;48.202;16.274;2023-02-15T16:02:05;42.83;;;19.92;;
49123;SDS011;48506;48.202;16.274;2023-02-15T16:04:34;42.10;;;22.45;;
49123;SDS011;48506;48.202;16.274;2023-02-15T16:07:23;49.20;;;23.55;;
49123;SDS011;48506;48.202;16.274;2023-02-15T16:12:21;31.63;;;16.17;;
49123;SDS011;48506;48.202;16.274;2023-02-15T16:14:48;51.17;;;22.35;;
49123;SDS011;48506;48.202;16.274;2023-02-15T16:17:18;48.33;;;21.55;;
49123;SDS011;48506;48.202;16.274;2023-02-15T16:19:47;47.45;;;22.70;;
49123;SDS011;48506;48.202;16.274;2023-02-15T16:22:16;42.83;;;22.08;;
49123;SDS011;48506;48.202;16.274;2023-02-15T16:27:45;51.13;;;24.27;;
49123;SDS011;48506;48.202;16.274;2023-02-15T16:33:05;54.03;;;27.80;;
49123;SDS011;48506;48.202;16.274;2023-02-15T16:35:36;50.85;;;23.17;;
49123;SDS011;48506;48.202;16.274;2023-02-15T16:38:10;51.47;;;23.67;;
49123;SDS011;48506;48.202;16.274;2023-02-15T16:43:03;54.83;;;23.10;;
49123;SDS011;48506;48.202;16.274;2023-02-15T16:45:33;47.75;;;22.90;;
49123;SDS011;48506;48.202;16.274;2023-02-15T16:48:06;46.13;;;21.95;;
49123;SDS011;48506;48.202;16.274;2023-02-15T16:50:37;47.00;;;21.88;;
49123;SDS011;48506;48.202;16.274;2023-02-15T16:53:05;48.70;;;22.42;;
49123;SDS011;48506;48.202;16.274;2023-02-15T16:55:41;51.88;;;23.45;;
49123;SDS011;48506;48.202;16.274;2023-02-15T16:58:15;50.28;;;23.20;;
49123;SDS011;48506;48.202;16.274;2023-02-15T17:00:46;49.30;;;24.23;;
49123;SDS011;48506;48.202;16.274;2023-02-15T17:08:18;55.90;;;23.38;;
49123;SDS011;48506;48.202;16.274;2023-02-15T17:13:39;47.65;;;23.27;;
49123;SDS011;48506;48.202;16.274;2023-02-15T17:16:35;55.35;;;25.70;;
49123;SDS011;48506;48.202;16.274;2023-02-15T17:19:13;50.72;;;23.23;;
49123;SDS011;48506;48.202;16.274;2023-02-15T17:21:56;56.58;;;26.67;;
49123;SDS011;48506;48.202;16.274;2023-02-15T17:24:35;54.33;;;25.20;;
49123;SDS011;48506;48.202;16.274;2023-02-15T17:27:06;44.57;;;20.37;;
49123;SDS011;48506;48.202;16.274;2023-02-15T17:29:57;53.08;;;24.88;;
49123;SDS011;48506;48.202;16.274;2023-02-15T17:32:30;61.78;;;26.13;;
49123;SDS011;48506;48.202;16.274;2023-02-15T17:35:06;56.97;;;26.20;;
49123;SDS011;48506;48.202;16.274;2023-02-15T17:40:09;58.88;;;26.48;;
49123;SDS011;48506;48.202;16.274;2023-02-15T17:42:49;63.42;;;29.02;;
49123;SDS011;48506;48.202;16.274;2023-02-15T17:45:16;67.78;;;28.48;;
49123;SDS011;48506;48.202;16.274;2023-02-15T17:47:46;57.93;;;27.20;;
49123;SDS011;48506;48.202;16.274;2023-02-15T17:50:24;61.35;;;28.02;;
49123;SDS011;48506;48.202;16.274;2023-02-15T17:52:52;63.85;;;28.45;;
49123;SDS011;48506;48.202;16.274;2023-02-15T17:55:21;68.45;;;29.30;;
49123;SDS011;48506;48.202;16.274;2023-02-15T17:58:04;63.25;;;27.52;;
49123;SDS011;48506;48.202;16.274;2023-02-15T18:00:55;68.80;;;31.30;;
49123;SDS011;48506;48.202;16.274;2023-02-15T18:03:45;71.25;;;31.83;;
49123;SDS011;48506;48.202;16.274;2023-02-15T18:06:31;71.05;;;30.13;;
49123;SDS011;48506;48.202;16.274;2023-02-15T18:09:18;73.45;;;31.63;;
49123;SDS011;48506;48.202;16.274;2023-02-15T18:14:43;76.75;;;32.35;;
49123;SDS011;48506;48.202;16.274;2023-02-15T18:17:10;69.55;;;32.95;;
49123;SDS011;48506;48.202;16.274;2023-02-15T18:19:41;76.22;;;32.67;;